sensor_id;sensor_type;location;lat;lon;timestamp;P1;durP1;ratioP1;P2;durP2;ratioP2
13374;SDS011;6756;51.354;15.754;2024-02-28T00:01:27;43.93;;;21.57;;
13374;SDS011;6756;51.354;15.754;2024-02-28T00:05:27;45.73;;;21.27;;
13374;SDS011;6756;51.354;15.754;2024-02-28T00:09:28;43.87;;;20.97;;
13374;SDS011;6756;51.354;15.754;2024-02-28T00:13:29;40.17;;;20.90;;
13374;SDS011;6756;51.354;15.754;2024-02-28T00:17:29;44.97;;;21.50;;
13374;SDS011;6756;51.354;15.754;2024-02-28T00:21:30;41.10;;;21.03;;
13374;SDS011;6756;51.354;15.754;2024-02-28T00:25:31;47.23;;;21.93;;
13374;SDS011;6756;51.354;15.754;2024-02-28T00:29:32;47.77;;;21.50;;
13374;SDS011;6756;51.354;15.754;2024-02-28T00:33:32;44.27;;;21.13;;
13374;SDS011;6756;51.354;15.754;2024-02-28T00:37:33;47.77;;;19.97;;
13374;SDS011;6756;51.354;15.754;2024-02-28T00:41:34;40.93;;;19.83;;
13374;SDS011;6756;51.354;15.754;2024-02-28T00:45:34;46.50;;;19.83;;
13374;SDS011;6756;51.354;15.754;2024-02-28T00:49:35;40.40;;;20.50;;
13374;SDS011;6756;51.354;15.754;2024-02-28T00:53:37;44.07;;;19.23;;
13374;SDS011;6756;51.354;15.754;2024-02-28T00:57:39;45.57;;;20.07;;
13374;SDS011;6756;51.354;15.754;2024-02-28T01:01:39;38.47;;;18.13;;
13374;SDS011;6756;51.354;15.754;2024-02-28T01:05:41;41.87;;;20.00;;
13374;SDS011;6756;51.354;15.754;2024-02-28T01:09:43;50.17;;;19.63;;
13374;SDS011;6756;51.354;15.754;2024-02-28T01:13:44;46.30;;;20.77;;
13374;SDS011;6756;51.354;15.754;2024-02-28T01:17:45;57.60;;;22.13;;
13374;SDS011;6756;51.354;15.754;2024-02-28T01:21:46;49.17;;;19.67;;
13374;SDS011;6756;51.354;15.754;2024-02-28T01:25:46;53.10;;;21.67;;
13374;SDS011;6756;51.354;15.754;2024-02-28T01:29:47;60.47;;;21.40;;
13374;SDS011;6756;51.354;15.754;2024-02-28T01:33:48;53.03;;;20.77;;
13374;SDS011;6756;51.354;15.754;2024-02-28T01:37:49;55.73;;;21.43;;
13374;SDS011;6756;51.354;15.754;2024-02-28T01:41:58;53.90;;;20.90;;
13374;SDS011;6756;51.354;15.754;2024-02-28T01:46:03;64.03;;;20.23;;
13374;SDS011;6756;51.354;15.754;2024-02-28T01:50:08;58.40;;;21.30;;
13374;SDS011;6756;51.354;15.754;2024-02-28T01:54:11;56.97;;;20.30;;
13374;SDS011;6756;51.354;15.754;2024-02-28T01:58:11;61.03;;;20.00;;
13374;SDS011;6756;51.354;15.754;2024-02-28T02:02:12;57.13;;;20.63;;
13374;SDS011;6756;51.354;15.754;2024-02-28T02:06:13;50.27;;;20.10;;
13374;SDS011;6756;51.354;15.754;2024-02-28T02:10:14;53.97;;;20.67;;
13374;SDS011;6756;51.354;15.754;2024-02-28T02:14:15;53.30;;;19.03;;
13374;SDS011;6756;51.354;15.754;2024-02-28T02:18:15;55.73;;;21.13;;
13374;SDS011;6756;51.354;15.754;2024-02-28T02:22:16;55.57;;;20.40;;
13374;SDS011;6756;51.354;15.754;2024-02-28T02:26:20;55.00;;;21.93;;
13374;SDS011;6756;51.354;15.754;2024-02-28T02:30:21;51.07;;;20.90;;
13374;SDS011;6756;51.354;15.754;2024-02-28T02:34:22;71.67;;;22.67;;
13374;SDS011;6756;51.354;15.754;2024-02-28T02:38:22;75.60;;;25.43;;
13374;SDS011;6756;51.354;15.754;2024-02-28T02:42:23;67.17;;;23.30;;
13374;SDS011;6756;51.354;15.754;2024-02-28T02:46:24;72.00;;;22.93;;
13374;SDS011;6756;51.354;15.754;2024-02-28T02:50:25;77.43;;;24.00;;
13374;SDS011;6756;51.354;15.754;2024-02-28T02:54:26;73.00;;;24.40;;
13374;SDS011;6756;51.354;15.754;2024-02-28T02:58:26;78.10;;;21.97;;
13374;SDS011;6756;51.354;15.754;2024-02-28T03:02:28;59.57;;;23.00;;
13374;SDS011;6756;51.354;15.754;2024-02-28T03:06:28;68.83;;;22.67;;
13374;SDS011;6756;51.354;15.754;2024-02-28T03:10:29;64.33;;;21.00;;
13374;SDS011;6756;51.354;15.754;2024-02-28T03:14:30;60.73;;;20.90;;
13374;SDS011;6756;51.354;15.754;2024-02-28T03:18:31;53.93;;;20.93;;
13374;SDS011;6756;51.354;15.754;2024-02-28T03:22:32;77.30;;;20.50;;
13374;SDS011;6756;51.354;15.754;2024-02-28T03:26:33;57.73;;;21.60;;
13374;SDS011;6756;51.354;15.754;2024-02-28T03:30:34;49.47;;;20.13;;
13374;SDS011;6756;51.354;15.754;2024-02-28T03:34:34;69.17;;;20.43;;
13374;SDS011;6756;51.354;15.754;2024-02-28T03:38:35;52.20;;;20.33;;
13374;SDS011;6756;51.354;15.754;2024-02-28T03:42:36;64.43;;;19.87;;
13374;SDS011;6756;51.354;15.754;2024-02-28T03:46:37;55.47;;;20.03;;
13374;SDS011;6756;51.354;15.754;2024-02-28T03:50:38;49.47;;;19.47;;
13374;SDS011;6756;51.354;15.754;2024-02-28T03:54:41;50.60;;;17.97;;
13374;SDS011;6756;51.354;15.754;2024-02-28T03:58:45;53.67;;;19.00;;
13374;SDS011;6756;51.354;15.754;2024-02-28T04:02:46;54.07;;;19.70;;
13374;SDS011;6756;51.354;15.754;2024-02-28T04:06:46;49.60;;;19.33;;
13374;SDS011;6756;51.354;15.754;2024-02-28T04:10:47;43.57;;;18.47;;
13374;SDS011;6756;51.354;15.754;2024-02-28T04:14:49;48.20;;;18.53;;
13374;SDS011;6756;51.354;15.754;2024-02-28T04:18:50;50.97;;;19.00;;
13374;SDS011;6756;51.354;15.754;2024-02-28T04:22:50;57.00;;;20.23;;
13374;SDS011;6756;51.354;15.754;2024-02-28T04:26:51;47.57;;;19.37;;
13374;SDS011;6756;51.354;15.754;2024-02-28T04:30:53;50.70;;;19.53;;
13374;SDS011;6756;51.354;15.754;2024-02-28T04:34:54;56.37;;;18.70;;
13374;SDS011;6756;51.354;15.754;2024-02-28T04:38:54;53.80;;;20.23;;
13374;SDS011;6756;51.354;15.754;2024-02-28T04:42:55;56.33;;;19.50;;
13374;SDS011;6756;51.354;15.754;2024-02-28T04:46:56;63.13;;;21.20;;
13374;SDS011;6756;51.354;15.754;2024-02-28T04:50:57;57.67;;;20.30;;
13374;SDS011;6756;51.354;15.754;2024-02-28T04:54:57;61.13;;;20.37;;
13374;SDS011;6756;51.354;15.754;2024-02-28T04:58:58;68.87;;;21.83;;
13374;SDS011;6756;51.354;15.754;2024-02-28T05:02:59;71.97;;;21.33;;
13374;SDS011;6756;51.354;15.754;2024-02-28T05:07:00;68.53;;;21.73;;
13374;SDS011;6756;51.354;15.754;2024-02-28T05:11:00;64.07;;;20.93;;
13374;SDS011;6756;51.354;15.754;2024-02-28T05:15:01;55.90;;;19.53;;
13374;SDS011;6756;51.354;15.754;2024-02-28T05:19:02;46.00;;;17.13;;
13374;SDS011;6756;51.354;15.754;2024-02-28T05:23:04;48.30;;;17.27;;
13374;SDS011;6756;51.354;15.754;2024-02-28T05:27:05;51.47;;;18.53;;
13374;SDS011;6756;51.354;15.754;2024-02-28T05:31:24;56.27;;;18.07;;
13374;SDS011;6756;51.354;15.754;2024-02-28T05:35:25;56.53;;;17.97;;
13374;SDS011;6756;51.354;15.754;2024-02-28T05:39:27;51.03;;;18.60;;
13374;SDS011;6756;51.354;15.754;2024-02-28T05:43:31;48.63;;;18.57;;
13374;SDS011;6756;51.354;15.754;2024-02-28T05:47:31;42.03;;;17.07;;
13374;SDS011;6756;51.354;15.754;2024-02-28T05:51:33;39.30;;;16.37;;
13374;SDS011;6756;51.354;15.754;2024-02-28T05:55:34;38.47;;;17.33;;
13374;SDS011;6756;51.354;15.754;2024-02-28T05:59:35;33.60;;;16.03;;
13374;SDS011;6756;51.354;15.754;2024-02-28T06:03:36;39.83;;;17.20;;
13374;SDS011;6756;51.354;15.754;2024-02-28T06:07:37;38.33;;;17.80;;
13374;SDS011;6756;51.354;15.754;2024-02-28T06:11:38;37.73;;;16.43;;
13374;SDS011;6756;51.354;15.754;2024-02-28T06:15:39;40.63;;;18.10;;
13374;SDS011;6756;51.354;15.754;2024-02-28T06:19:39;37.57;;;16.47;;
13374;SDS011;6756;51.354;15.754;2024-02-28T06:23:40;40.10;;;17.17;;
13374;SDS011;6756;51.354;15.754;2024-02-28T06:27:41;32.77;;;16.67;;
13374;SDS011;6756;51.354;15.754;2024-02-28T06:31:42;33.20;;;15.10;;
13374;SDS011;6756;51.354;15.754;2024-02-28T06:35:43;31.20;;;16.70;;
13374;SDS011;6756;51.354;15.754;2024-02-28T06:39:43;29.10;;;15.40;;
13374;SDS011;6756;51.354;15.754;2024-02-28T06:43:44;32.17;;;15.73;;
13374;SDS011;6756;51.354;15.754;2024-02-28T06:47:46;29.40;;;15.40;;
13374;SDS011;6756;51.354;15.754;2024-02-28T06:51:47;28.93;;;16.07;;
13374;SDS011;6756;51.354;15.754;2024-02-28T06:55:47;31.07;;;15.70;;
13374;SDS011;6756;51.354;15.754;2024-02-28T06:59:48;25.93;;;14.87;;
13374;SDS011;6756;51.354;15.754;2024-02-28T07:03:49;24.10;;;13.50;;
13374;SDS011;6756;51.354;15.754;2024-02-28T07:07:50;20.40;;;12.77;;
13374;SDS011;6756;51.354;15.754;2024-02-28T07:11:51;23.50;;;13.57;;
13374;SDS011;6756;51.354;15.754;2024-02-28T07:15:52;23.87;;;13.43;;
13374;SDS011;6756;51.354;15.754;2024-02-28T07:19:54;23.97;;;12.73;;
13374;SDS011;6756;51.354;15.754;2024-02-28T07:23:55;22.20;;;12.17;;
13374;SDS011;6756;51.354;15.754;2024-02-28T07:27:59;24.70;;;13.57;;
13374;SDS011;6756;51.354;15.754;2024-02-28T07:32:00;21.77;;;12.30;;
13374;SDS011;6756;51.354;15.754;2024-02-28T07:36:02;19.80;;;12.07;;
13374;SDS011;6756;51.354;15.754;2024-02-28T07:40:03;21.50;;;12.67;;
13374;SDS011;6756;51.354;15.754;2024-02-28T07:44:05;18.57;;;11.57;;
13374;SDS011;6756;51.354;15.754;2024-02-28T07:48:07;19.20;;;12.07;;
13374;SDS011;6756;51.354;15.754;2024-02-28T07:52:07;20.67;;;12.73;;
13374;SDS011;6756;51.354;15.754;2024-02-28T07:56:15;19.00;;;11.60;;
13374;SDS011;6756;51.354;15.754;2024-02-28T08:00:21;18.10;;;11.17;;
13374;SDS011;6756;51.354;15.754;2024-02-28T08:04:22;17.93;;;10.87;;
13374;SDS011;6756;51.354;15.754;2024-02-28T08:08:24;17.83;;;10.53;;
13374;SDS011;6756;51.354;15.754;2024-02-28T08:12:25;17.07;;;11.33;;
13374;SDS011;6756;51.354;15.754;2024-02-28T08:16:26;15.57;;;9.83;;
13374;SDS011;6756;51.354;15.754;2024-02-28T08:20:26;15.00;;;9.67;;
13374;SDS011;6756;51.354;15.754;2024-02-28T08:24:27;16.73;;;10.40;;
13374;SDS011;6756;51.354;15.754;2024-02-28T08:28:28;13.80;;;9.00;;
13374;SDS011;6756;51.354;15.754;2024-02-28T08:32:28;13.80;;;9.27;;
13374;SDS011;6756;51.354;15.754;2024-02-28T08:36:29;17.23;;;10.20;;
13374;SDS011;6756;51.354;15.754;2024-02-28T08:40:30;17.03;;;10.30;;
13374;SDS011;6756;51.354;15.754;2024-02-28T08:44:31;22.07;;;11.50;;
13374;SDS011;6756;51.354;15.754;2024-02-28T08:48:35;22.87;;;12.07;;
13374;SDS011;6756;51.354;15.754;2024-02-28T08:52:37;20.80;;;12.13;;
13374;SDS011;6756;51.354;15.754;2024-02-28T08:56:38;24.73;;;13.93;;
13374;SDS011;6756;51.354;15.754;2024-02-28T09:00:39;21.50;;;12.17;;
13374;SDS011;6756;51.354;15.754;2024-02-28T09:04:40;22.60;;;13.57;;
13374;SDS011;6756;51.354;15.754;2024-02-28T09:08:41;23.80;;;14.10;;
13374;SDS011;6756;51.354;15.754;2024-02-28T09:12:41;25.87;;;15.00;;
13374;SDS011;6756;51.354;15.754;2024-02-28T09:16:42;28.43;;;14.87;;
13374;SDS011;6756;51.354;15.754;2024-02-28T09:20:43;35.63;;;16.97;;
13374;SDS011;6756;51.354;15.754;2024-02-28T09:24:43;33.63;;;15.73;;
13374;SDS011;6756;51.354;15.754;2024-02-28T09:28:44;33.80;;;17.37;;
13374;SDS011;6756;51.354;15.754;2024-02-28T09:32:45;38.10;;;17.50;;
13374;SDS011;6756;51.354;15.754;2024-02-28T09:36:47;39.93;;;18.83;;
13374;SDS011;6756;51.354;15.754;2024-02-28T09:40:48;37.47;;;17.83;;
13374;SDS011;6756;51.354;15.754;2024-02-28T09:44:49;36.13;;;18.67;;
13374;SDS011;6756;51.354;15.754;2024-02-28T09:48:50;35.00;;;17.70;;
13374;SDS011;6756;51.354;15.754;2024-02-28T09:52:53;35.50;;;18.37;;
13374;SDS011;6756;51.354;15.754;2024-02-28T09:56:54;32.80;;;16.00;;
13374;SDS011;6756;51.354;15.754;2024-02-28T10:00:56;29.53;;;17.07;;
13374;SDS011;6756;51.354;15.754;2024-02-28T10:04:59;32.40;;;16.57;;
13374;SDS011;6756;51.354;15.754;2024-02-28T10:09:01;28.40;;;14.50;;
13374;SDS011;6756;51.354;15.754;2024-02-28T10:13:02;31.37;;;16.40;;
13374;SDS011;6756;51.354;15.754;2024-02-28T10:17:04;31.67;;;16.77;;
13374;SDS011;6756;51.354;15.754;2024-02-28T10:21:05;30.57;;;16.07;;
13374;SDS011;6756;51.354;15.754;2024-02-28T10:25:06;23.50;;;13.80;;
13374;SDS011;6756;51.354;15.754;2024-02-28T10:29:07;20.03;;;12.43;;
13374;SDS011;6756;51.354;15.754;2024-02-28T10:33:11;22.97;;;13.30;;
13374;SDS011;6756;51.354;15.754;2024-02-28T10:37:15;24.30;;;13.20;;
13374;SDS011;6756;51.354;15.754;2024-02-28T10:41:17;24.43;;;12.27;;
13374;SDS011;6756;51.354;15.754;2024-02-28T10:45:19;21.33;;;12.33;;
13374;SDS011;6756;51.354;15.754;2024-02-28T10:49:25;18.37;;;10.73;;
13374;SDS011;6756;51.354;15.754;2024-02-28T10:53:31;19.40;;;11.80;;
13374;SDS011;6756;51.354;15.754;2024-02-28T10:57:37;15.87;;;10.00;;
13374;SDS011;6756;51.354;15.754;2024-02-28T11:01:43;24.23;;;12.77;;
13374;SDS011;6756;51.354;15.754;2024-02-28T11:05:44;20.77;;;12.10;;
13374;SDS011;6756;51.354;15.754;2024-02-28T11:09:53;17.53;;;10.83;;
13374;SDS011;6756;51.354;15.754;2024-02-28T11:13:55;23.10;;;13.47;;
13374;SDS011;6756;51.354;15.754;2024-02-28T11:18:06;22.40;;;12.37;;
13374;SDS011;6756;51.354;15.754;2024-02-28T11:22:09;19.40;;;11.40;;
13374;SDS011;6756;51.354;15.754;2024-02-28T11:26:11;21.23;;;11.83;;
13374;SDS011;6756;51.354;15.754;2024-02-28T11:30:13;32.97;;;14.37;;
13374;SDS011;6756;51.354;15.754;2024-02-28T11:34:15;26.53;;;14.80;;
13374;SDS011;6756;51.354;15.754;2024-02-28T11:38:16;32.13;;;15.23;;
13374;SDS011;6756;51.354;15.754;2024-02-28T11:42:17;29.43;;;15.47;;
13374;SDS011;6756;51.354;15.754;2024-02-28T11:46:18;32.33;;;16.30;;
13374;SDS011;6756;51.354;15.754;2024-02-28T11:50:19;34.10;;;16.73;;
13374;SDS011;6756;51.354;15.754;2024-02-28T11:54:19;34.60;;;18.07;;
13374;SDS011;6756;51.354;15.754;2024-02-28T11:58:21;34.53;;;17.07;;
13374;SDS011;6756;51.354;15.754;2024-02-28T12:02:23;37.13;;;17.50;;
13374;SDS011;6756;51.354;15.754;2024-02-28T12:06:28;30.60;;;15.07;;
13374;SDS011;6756;51.354;15.754;2024-02-28T12:10:29;26.37;;;12.97;;
13374;SDS011;6756;51.354;15.754;2024-02-28T12:14:37;27.30;;;14.53;;
13374;SDS011;6756;51.354;15.754;2024-02-28T12:18:42;33.17;;;17.37;;
13374;SDS011;6756;51.354;15.754;2024-02-28T12:22:43;35.97;;;17.50;;
13374;SDS011;6756;51.354;15.754;2024-02-28T12:26:43;31.33;;;16.53;;
13374;SDS011;6756;51.354;15.754;2024-02-28T12:30:44;29.53;;;15.30;;
13374;SDS011;6756;51.354;15.754;2024-02-28T12:34:45;23.13;;;12.40;;
13374;SDS011;6756;51.354;15.754;2024-02-28T12:38:46;25.80;;;13.80;;
13374;SDS011;6756;51.354;15.754;2024-02-28T12:42:47;24.47;;;13.83;;
13374;SDS011;6756;51.354;15.754;2024-02-28T12:46:48;22.33;;;12.40;;
13374;SDS011;6756;51.354;15.754;2024-02-28T12:50:49;27.37;;;13.67;;
13374;SDS011;6756;51.354;15.754;2024-02-28T12:54:50;27.30;;;13.13;;
13374;SDS011;6756;51.354;15.754;2024-02-28T12:58:51;22.43;;;13.47;;
13374;SDS011;6756;51.354;15.754;2024-02-28T13:02:51;21.93;;;13.13;;
13374;SDS011;6756;51.354;15.754;2024-02-28T13:06:52;21.30;;;11.97;;
13374;SDS011;6756;51.354;15.754;2024-02-28T13:10:53;20.73;;;11.97;;
13374;SDS011;6756;51.354;15.754;2024-02-28T13:14:54;22.17;;;10.93;;
13374;SDS011;6756;51.354;15.754;2024-02-28T13:18:55;20.43;;;11.63;;
13374;SDS011;6756;51.354;15.754;2024-02-28T13:22:56;21.83;;;12.10;;
13374;SDS011;6756;51.354;15.754;2024-02-28T13:26:57;20.07;;;11.80;;
13374;SDS011;6756;51.354;15.754;2024-02-28T13:31:01;17.77;;;10.27;;
13374;SDS011;6756;51.354;15.754;2024-02-28T13:35:04;15.97;;;10.10;;
13374;SDS011;6756;51.354;15.754;2024-02-28T13:39:04;18.87;;;10.83;;
13374;SDS011;6756;51.354;15.754;2024-02-28T13:43:06;18.60;;;10.63;;
13374;SDS011;6756;51.354;15.754;2024-02-28T13:47:10;20.23;;;11.27;;
13374;SDS011;6756;51.354;15.754;2024-02-28T13:51:13;17.27;;;10.57;;
13374;SDS011;6756;51.354;15.754;2024-02-28T13:55:15;16.60;;;10.30;;
13374;SDS011;6756;51.354;15.754;2024-02-28T13:59:16;18.73;;;10.73;;
13374;SDS011;6756;51.354;15.754;2024-02-28T14:03:17;17.60;;;10.30;;
13374;SDS011;6756;51.354;15.754;2024-02-28T14:07:18;17.13;;;11.47;;
13374;SDS011;6756;51.354;15.754;2024-02-28T14:11:19;15.17;;;10.10;;
13374;SDS011;6756;51.354;15.754;2024-02-28T14:15:20;14.37;;;9.00;;
13374;SDS011;6756;51.354;15.754;2024-02-28T14:19:22;15.77;;;10.43;;
13374;SDS011;6756;51.354;15.754;2024-02-28T14:23:23;16.60;;;11.03;;
13374;SDS011;6756;51.354;15.754;2024-02-28T14:27:24;20.00;;;11.53;;
13374;SDS011;6756;51.354;15.754;2024-02-28T14:31:29;21.90;;;12.47;;
13374;SDS011;6756;51.354;15.754;2024-02-28T14:35:30;23.30;;;13.53;;
13374;SDS011;6756;51.354;15.754;2024-02-28T14:39:34;20.40;;;12.63;;
13374;SDS011;6756;51.354;15.754;2024-02-28T14:43:34;21.83;;;12.63;;
13374;SDS011;6756;51.354;15.754;2024-02-28T14:47:36;22.43;;;12.83;;
13374;SDS011;6756;51.354;15.754;2024-02-28T14:51:37;24.70;;;14.83;;
13374;SDS011;6756;51.354;15.754;2024-02-28T14:55:38;23.13;;;13.70;;
13374;SDS011;6756;51.354;15.754;2024-02-28T14:59:39;23.97;;;13.70;;
13374;SDS011;6756;51.354;15.754;2024-02-28T15:03:40;23.13;;;13.23;;
13374;SDS011;6756;51.354;15.754;2024-02-28T15:07:41;24.43;;;14.73;;
13374;SDS011;6756;51.354;15.754;2024-02-28T15:11:42;28.30;;;14.53;;
13374;SDS011;6756;51.354;15.754;2024-02-28T15:15:43;24.33;;;13.63;;
13374;SDS011;6756;51.354;15.754;2024-02-28T15:19:44;26.13;;;15.10;;
13374;SDS011;6756;51.354;15.754;2024-02-28T15:23:45;23.83;;;12.77;;
13374;SDS011;6756;51.354;15.754;2024-02-28T15:27:46;22.50;;;12.17;;
13374;SDS011;6756;51.354;15.754;2024-02-28T15:31:47;18.13;;;10.67;;
13374;SDS011;6756;51.354;15.754;2024-02-28T15:35:48;17.03;;;10.77;;
13374;SDS011;6756;51.354;15.754;2024-02-28T15:39:48;19.03;;;11.63;;
13374;SDS011;6756;51.354;15.754;2024-02-28T15:43:50;20.97;;;11.77;;
13374;SDS011;6756;51.354;15.754;2024-02-28T15:47:51;17.13;;;10.97;;
13374;SDS011;6756;51.354;15.754;2024-02-28T15:51:51;16.70;;;10.77;;
13374;SDS011;6756;51.354;15.754;2024-02-28T15:55:52;18.53;;;11.10;;
13374;SDS011;6756;51.354;15.754;2024-02-28T15:59:53;17.60;;;10.67;;
13374;SDS011;6756;51.354;15.754;2024-02-28T16:03:55;19.30;;;11.23;;
13374;SDS011;6756;51.354;15.754;2024-02-28T16:07:57;17.90;;;11.17;;
13374;SDS011;6756;51.354;15.754;2024-02-28T16:11:57;16.27;;;11.40;;
13374;SDS011;6756;51.354;15.754;2024-02-28T16:15:58;14.80;;;9.93;;
13374;SDS011;6756;51.354;15.754;2024-02-28T16:20:03;14.20;;;9.67;;
13374;SDS011;6756;51.354;15.754;2024-02-28T16:24:07;12.63;;;9.13;;
13374;SDS011;6756;51.354;15.754;2024-02-28T16:28:08;14.93;;;9.93;;
13374;SDS011;6756;51.354;15.754;2024-02-28T16:32:09;15.37;;;10.73;;
13374;SDS011;6756;51.354;15.754;2024-02-28T16:36:10;21.10;;;12.50;;
13374;SDS011;6756;51.354;15.754;2024-02-28T16:40:11;19.73;;;12.10;;
13374;SDS011;6756;51.354;15.754;2024-02-28T16:44:12;19.23;;;12.33;;
13374;SDS011;6756;51.354;15.754;2024-02-28T16:48:13;18.47;;;11.20;;
13374;SDS011;6756;51.354;15.754;2024-02-28T16:52:14;18.50;;;11.93;;
13374;SDS011;6756;51.354;15.754;2024-02-28T16:56:16;19.57;;;11.70;;
13374;SDS011;6756;51.354;15.754;2024-02-28T17:00:17;17.90;;;11.23;;
13374;SDS011;6756;51.354;15.754;2024-02-28T17:04:19;20.23;;;12.33;;
13374;SDS011;6756;51.354;15.754;2024-02-28T17:08:20;20.37;;;11.70;;
13374;SDS011;6756;51.354;15.754;2024-02-28T17:12:21;17.80;;;11.53;;
13374;SDS011;6756;51.354;15.754;2024-02-28T17:16:22;24.67;;;15.87;;
13374;SDS011;6756;51.354;15.754;2024-02-28T17:20:23;20.60;;;11.63;;
13374;SDS011;6756;51.354;15.754;2024-02-28T17:24:26;18.67;;;12.83;;
13374;SDS011;6756;51.354;15.754;2024-02-28T17:28:27;23.00;;;14.07;;
13374;SDS011;6756;51.354;15.754;2024-02-28T17:32:28;23.00;;;14.03;;
13374;SDS011;6756;51.354;15.754;2024-02-28T17:36:29;24.53;;;14.30;;
13374;SDS011;6756;51.354;15.754;2024-02-28T17:40:29;26.33;;;14.40;;
13374;SDS011;6756;51.354;15.754;2024-02-28T17:44:30;25.93;;;14.43;;
13374;SDS011;6756;51.354;15.754;2024-02-28T17:48:31;24.07;;;13.90;;
13374;SDS011;6756;51.354;15.754;2024-02-28T17:52:35;18.77;;;11.90;;
13374;SDS011;6756;51.354;15.754;2024-02-28T17:56:36;24.50;;;14.37;;
13374;SDS011;6756;51.354;15.754;2024-02-28T18:00:38;23.10;;;12.70;;
13374;SDS011;6756;51.354;15.754;2024-02-28T18:04:39;18.60;;;11.93;;
13374;SDS011;6756;51.354;15.754;2024-02-28T18:08:40;21.90;;;12.97;;
13374;SDS011;6756;51.354;15.754;2024-02-28T18:12:41;18.43;;;11.87;;
13374;SDS011;6756;51.354;15.754;2024-02-28T18:16:42;17.33;;;12.27;;
13374;SDS011;6756;51.354;15.754;2024-02-28T18:20:43;16.40;;;11.67;;
13374;SDS011;6756;51.354;15.754;2024-02-28T18:24:44;18.50;;;11.80;;
13374;SDS011;6756;51.354;15.754;2024-02-28T18:28:45;17.10;;;12.10;;
13374;SDS011;6756;51.354;15.754;2024-02-28T18:32:46;16.90;;;10.70;;
13374;SDS011;6756;51.354;15.754;2024-02-28T18:36:48;14.80;;;10.40;;
13374;SDS011;6756;51.354;15.754;2024-02-28T18:40:49;14.23;;;9.60;;
13374;SDS011;6756;51.354;15.754;2024-02-28T18:44:54;12.47;;;9.77;;
13374;SDS011;6756;51.354;15.754;2024-02-28T18:48:55;12.60;;;9.13;;
13374;SDS011;6756;51.354;15.754;2024-02-28T18:52:56;10.83;;;8.17;;
13374;SDS011;6756;51.354;15.754;2024-02-28T18:56:57;11.83;;;8.40;;
13374;SDS011;6756;51.354;15.754;2024-02-28T19:00:58;11.87;;;9.27;;
13374;SDS011;6756;51.354;15.754;2024-02-28T19:04:59;14.25;;;8.45;;
13374;SDS011;6756;51.354;15.754;2024-02-28T19:09:00;12.20;;;8.57;;
13374;SDS011;6756;51.354;15.754;2024-02-28T19:13:00;12.63;;;9.37;;
13374;SDS011;6756;51.354;15.754;2024-02-28T19:17:02;14.43;;;10.10;;
13374;SDS011;6756;51.354;15.754;2024-02-28T19:21:04;15.70;;;9.57;;
13374;SDS011;6756;51.354;15.754;2024-02-28T19:25:06;13.00;;;9.47;;
13374;SDS011;6756;51.354;15.754;2024-02-28T19:29:07;10.40;;;8.10;;
13374;SDS011;6756;51.354;15.754;2024-02-28T19:33:08;10.23;;;8.10;;
13374;SDS011;6756;51.354;15.754;2024-02-28T19:37:10;14.47;;;9.87;;
13374;SDS011;6756;51.354;15.754;2024-02-28T19:41:11;12.10;;;8.73;;
13374;SDS011;6756;51.354;15.754;2024-02-28T19:45:12;13.70;;;9.50;;
13374;SDS011;6756;51.354;15.754;2024-02-28T19:49:13;13.73;;;9.33;;
13374;SDS011;6756;51.354;15.754;2024-02-28T19:53:18;13.70;;;10.73;;
13374;SDS011;6756;51.354;15.754;2024-02-28T19:57:20;14.37;;;10.60;;
13374;SDS011;6756;51.354;15.754;2024-02-28T20:01:21;13.00;;;10.27;;
13374;SDS011;6756;51.354;15.754;2024-02-28T20:05:25;13.47;;;11.03;;
13374;SDS011;6756;51.354;15.754;2024-02-28T20:09:27;15.40;;;11.37;;
13374;SDS011;6756;51.354;15.754;2024-02-28T20:13:34;14.30;;;10.97;;
13374;SDS011;6756;51.354;15.754;2024-02-28T20:17:35;14.50;;;10.70;;
13374;SDS011;6756;51.354;15.754;2024-02-28T20:21:36;18.57;;;13.10;;
13374;SDS011;6756;51.354;15.754;2024-02-28T20:25:37;20.33;;;14.50;;
13374;SDS011;6756;51.354;15.754;2024-02-28T20:29:39;16.10;;;12.23;;
13374;SDS011;6756;51.354;15.754;2024-02-28T20:33:40;17.30;;;13.77;;
13374;SDS011;6756;51.354;15.754;2024-02-28T20:37:43;15.13;;;11.60;;
13374;SDS011;6756;51.354;15.754;2024-02-28T20:41:44;17.53;;;12.13;;
13374;SDS011;6756;51.354;15.754;2024-02-28T20:45:46;16.27;;;12.47;;
13374;SDS011;6756;51.354;15.754;2024-02-28T20:49:47;18.83;;;13.17;;
13374;SDS011;6756;51.354;15.754;2024-02-28T20:53:48;19.77;;;13.93;;
13374;SDS011;6756;51.354;15.754;2024-02-28T20:57:54;19.83;;;13.87;;
13374;SDS011;6756;51.354;15.754;2024-02-28T21:01:55;18.97;;;14.67;;
13374;SDS011;6756;51.354;15.754;2024-02-28T21:05:56;15.97;;;12.30;;
13374;SDS011;6756;51.354;15.754;2024-02-28T21:09:57;19.97;;;15.27;;
13374;SDS011;6756;51.354;15.754;2024-02-28T21:13:58;19.80;;;14.00;;
13374;SDS011;6756;51.354;15.754;2024-02-28T21:17:58;19.87;;;14.70;;
13374;SDS011;6756;51.354;15.754;2024-02-28T21:22:00;17.50;;;12.40;;
13374;SDS011;6756;51.354;15.754;2024-02-28T21:26:01;18.30;;;13.73;;
13374;SDS011;6756;51.354;15.754;2024-02-28T21:30:04;18.63;;;14.27;;
13374;SDS011;6756;51.354;15.754;2024-02-28T21:34:07;20.00;;;13.90;;
13374;SDS011;6756;51.354;15.754;2024-02-28T21:38:08;14.60;;;11.73;;
13374;SDS011;6756;51.354;15.754;2024-02-28T21:42:09;16.17;;;12.23;;
13374;SDS011;6756;51.354;15.754;2024-02-28T21:46:11;15.50;;;12.27;;
13374;SDS011;6756;51.354;15.754;2024-02-28T21:50:11;16.87;;;11.90;;
13374;SDS011;6756;51.354;15.754;2024-02-28T21:54:12;16.47;;;11.90;;
13374;SDS011;6756;51.354;15.754;2024-02-28T21:58:13;16.67;;;12.70;;
13374;SDS011;6756;51.354;15.754;2024-02-28T22:02:15;17.43;;;13.57;;
13374;SDS011;6756;51.354;15.754;2024-02-28T22:06:18;16.03;;;11.77;;
13374;SDS011;6756;51.354;15.754;2024-02-28T22:10:19;15.30;;;11.70;;
13374;SDS011;6756;51.354;15.754;2024-02-28T22:14:20;16.17;;;12.47;;
13374;SDS011;6756;51.354;15.754;2024-02-28T22:18:21;15.03;;;11.07;;
13374;SDS011;6756;51.354;15.754;2024-02-28T22:22:21;15.53;;;12.53;;
13374;SDS011;6756;51.354;15.754;2024-02-28T22:26:22;15.00;;;11.63;;
13374;SDS011;6756;51.354;15.754;2024-02-28T22:30:23;16.87;;;11.63;;
13374;SDS011;6756;51.354;15.754;2024-02-28T22:34:25;20.40;;;14.27;;
13374;SDS011;6756;51.354;15.754;2024-02-28T22:38:26;19.70;;;15.13;;
13374;SDS011;6756;51.354;15.754;2024-02-28T22:42:27;21.10;;;14.40;;
13374;SDS011;6756;51.354;15.754;2024-02-28T22:46:28;20.93;;;15.13;;
13374;SDS011;6756;51.354;15.754;2024-02-28T22:50:29;22.90;;;16.63;;
13374;SDS011;6756;51.354;15.754;2024-02-28T22:54:30;21.27;;;15.57;;
13374;SDS011;6756;51.354;15.754;2024-02-28T22:58:30;21.27;;;16.13;;
13374;SDS011;6756;51.354;15.754;2024-02-28T23:02:31;22.30;;;15.23;;
13374;SDS011;6756;51.354;15.754;2024-02-28T23:06:32;23.00;;;17.37;;
13374;SDS011;6756;51.354;15.754;2024-02-28T23:10:33;25.13;;;17.80;;
13374;SDS011;6756;51.354;15.754;2024-02-28T23:14:34;20.93;;;15.97;;
13374;SDS011;6756;51.354;15.754;2024-02-28T23:18:35;24.10;;;17.47;;
13374;SDS011;6756;51.354;15.754;2024-02-28T23:22:36;25.73;;;17.67;;
13374;SDS011;6756;51.354;15.754;2024-02-28T23:26:37;24.17;;;16.20;;
13374;SDS011;6756;51.354;15.754;2024-02-28T23:30:37;23.20;;;17.57;;
13374;SDS011;6756;51.354;15.754;2024-02-28T23:34:38;24.97;;;18.23;;